createdAt,value
2022-10-18T00:00:08.349Z,41.15
2022-10-18T00:00:38.378Z,41.15
2022-10-18T00:01:08.408Z,41.13
2022-10-18T00:01:38.535Z,41.13
2022-10-18T00:02:08.650Z,41.13
2022-10-18T00:02:38.565Z,41.09
2022-10-18T00:03:08.591Z,41.12
2022-10-18T00:03:38.701Z,41.13
2022-10-18T00:04:08.722Z,41.14
2022-10-18T00:04:38.750Z,41.16
2022-10-18T00:05:08.770Z,41.11
2022-10-18T00:05:38.797Z,41.20
2022-10-18T00:06:08.836Z,41.22
2022-10-18T00:06:42.601Z,41.19
2022-10-18T00:07:08.974Z,41.20
2022-10-18T00:07:38.999Z,41.17
2022-10-18T00:08:09.026Z,41.10
2022-10-18T00:08:39.074Z,41.17
2022-10-18T00:09:09.078Z,41.14
2022-10-18T00:09:39.104Z,41.09
2022-10-18T00:10:09.128Z,41.05
2022-10-18T00:10:39.160Z,41.08
2022-10-18T00:11:09.185Z,41.20
2022-10-18T00:11:39.213Z,41.11
2022-10-18T00:12:09.239Z,41.13
2022-10-18T00:12:39.319Z,41.11
2022-10-18T00:13:09.334Z,41.13
2022-10-18T00:13:39.355Z,41.09
2022-10-18T00:14:09.385Z,41.03
2022-10-18T00:14:39.405Z,41.09
2022-10-18T00:15:09.430Z,41.08
2022-10-18T00:15:39.462Z,41.13
2022-10-18T00:16:09.492Z,41.07
2022-10-18T00:16:39.515Z,41.10
2022-10-18T00:17:09.565Z,41.11
2022-10-18T00:17:39.570Z,41.13
2022-10-18T00:18:09.593Z,41.14
2022-10-18T00:18:39.618Z,41.20
2022-10-18T00:19:09.653Z,41.14
2022-10-18T00:19:39.679Z,41.17
2022-10-18T00:20:09.706Z,41.11
2022-10-18T00:20:39.732Z,41.07
2022-10-18T00:21:09.770Z,41.13
2022-10-18T00:21:39.883Z,41.04
2022-10-18T00:22:09.877Z,41.13
2022-10-18T00:22:39.903Z,41.10
2022-10-18T00:23:09.938Z,41.16
2022-10-18T00:23:39.965Z,41.10
2022-10-18T00:24:09.992Z,41.16
2022-10-18T00:24:40.012Z,41.10
2022-10-18T00:25:10.043Z,41.01
2022-10-18T00:25:40.069Z,41.10
2022-10-18T00:26:10.100Z,41.13
2022-10-18T00:26:40.128Z,41.14
2022-10-18T00:27:10.156Z,41.14
2022-10-18T00:27:40.183Z,41.16
2022-10-18T00:28:10.205Z,41.14
2022-10-18T00:28:40.276Z,41.10
2022-10-18T00:29:10.314Z,41.17
2022-10-18T00:29:40.332Z,41.10
2022-10-18T00:30:10.363Z,41.04
2022-10-18T00:30:40.465Z,41.04
2022-10-18T00:31:10.505Z,41.07
2022-10-18T00:31:40.527Z,41.04
2022-10-18T00:32:10.557Z,41.08
2022-10-18T00:32:40.606Z,41.06
2022-10-18T00:33:10.611Z,41.08
2022-10-18T00:33:40.637Z,41.06
2022-10-18T00:34:10.662Z,41.17
2022-10-18T00:34:40.689Z,41.09
2022-10-18T00:35:10.776Z,41.10
2022-10-18T00:35:40.806Z,41.11
2022-10-18T00:36:10.836Z,41.08
2022-10-18T00:36:40.870Z,41.14
2022-10-18T00:37:10.896Z,41.09
2022-10-18T00:37:40.921Z,41.07
2022-10-18T00:38:10.941Z,41.10
2022-10-18T00:38:40.981Z,41.05
2022-10-18T00:39:11.006Z,41.09
2022-10-18T00:39:41.090Z,41.07
2022-10-18T00:40:11.104Z,41.11
2022-10-18T00:40:41.124Z,41.04
2022-10-18T00:41:11.164Z,41.03
2022-10-18T00:41:41.185Z,41.05
2022-10-18T00:42:11.209Z,41.03
2022-10-18T00:42:41.237Z,41.04
2022-10-18T00:43:11.257Z,41.10
2022-10-18T00:43:41.284Z,41.04
2022-10-18T00:44:11.307Z,41.09
2022-10-18T00:44:41.330Z,41.07
2022-10-18T00:45:11.357Z,41.10
2022-10-18T00:45:41.382Z,41.09
2022-10-18T00:46:11.412Z,41.04
2022-10-18T00:46:41.422Z,41.04
2022-10-18T00:47:11.538Z,41.13
2022-10-18T00:47:41.651Z,41.07
2022-10-18T00:48:11.788Z,41.09
2022-10-18T00:48:41.997Z,41.04
2022-10-18T00:49:11.988Z,41.05
2022-10-18T00:49:41.970Z,41.02
2022-10-18T00:50:12.084Z,41.05
2022-10-18T00:50:42.193Z,41.04
2022-10-18T00:51:12.312Z,41.01
2022-10-18T00:51:42.427Z,41.11
2022-10-18T00:52:12.545Z,41.14
2022-10-18T00:52:42.537Z,41.14
2022-10-18T00:53:12.648Z,41.06
2022-10-18T00:53:42.756Z,41.07
2022-10-18T00:54:12.875Z,41.06
2022-10-18T00:54:42.988Z,41.16
2022-10-18T00:55:13.102Z,41.06
2022-10-18T00:55:43.217Z,41.04
2022-10-18T00:56:13.332Z,40.98
2022-10-18T00:56:43.332Z,41.04
2022-10-18T00:57:13.362Z,41.07
2022-10-18T00:57:43.465Z,41.11
2022-10-18T00:58:13.493Z,41.06
2022-10-18T00:58:43.523Z,41.10
2022-10-18T00:59:13.552Z,41.05
2022-10-18T00:59:43.572Z,41.15
2022-10-18T01:00:13.598Z,41.04
2022-10-18T01:00:43.629Z,41.04
2022-10-18T01:01:13.724Z,41.01
2022-10-18T01:01:43.869Z,41.00
2022-10-18T01:02:13.798Z,41.01
2022-10-18T01:02:43.789Z,40.97
2022-10-18T01:03:13.843Z,40.98
2022-10-18T01:03:43.831Z,40.99
2022-10-18T01:04:13.862Z,41.05
2022-10-18T01:04:43.888Z,41.04
2022-10-18T01:05:13.913Z,41.07
2022-10-18T01:05:43.935Z,41.03
2022-10-18T01:06:13.965Z,41.01
2022-10-18T01:06:44.058Z,41.05
2022-10-18T01:07:14.060Z,40.98
2022-10-18T01:07:44.086Z,41.02
2022-10-18T01:08:14.117Z,41.07
2022-10-18T01:08:44.145Z,41.05
2022-10-18T01:09:14.177Z,41.04
2022-10-18T01:09:44.203Z,41.05
2022-10-18T01:10:14.228Z,41.03
2022-10-18T01:10:44.250Z,40.99
2022-10-18T01:11:14.277Z,41.03
2022-10-18T01:11:44.308Z,41.01
2022-10-18T01:12:14.332Z,41.05
2022-10-18T01:12:44.361Z,40.99
2022-10-18T01:13:14.394Z,41.01
2022-10-18T01:13:44.415Z,41.08
2022-10-18T01:14:14.446Z,40.98
2022-10-18T01:14:44.471Z,41.03
2022-10-18T01:15:14.494Z,41.08
2022-10-18T01:15:44.586Z,41.05
2022-10-18T01:16:14.587Z,40.98
2022-10-18T01:16:44.612Z,41.02
2022-10-18T01:17:14.635Z,41.04
2022-10-18T01:17:44.665Z,41.04
2022-10-18T01:18:14.692Z,41.01
2022-10-18T01:18:44.745Z,40.99
2022-10-18T01:19:14.744Z,41.01
2022-10-18T01:19:44.772Z,41.10
2022-10-18T01:20:14.798Z,41.09
2022-10-18T01:20:44.816Z,41.03
2022-10-18T01:21:14.851Z,40.98
2022-10-18T01:21:44.873Z,41.06
2022-10-18T01:22:14.908Z,41.06
2022-10-18T01:22:44.931Z,41.07
2022-10-18T01:23:14.954Z,41.08
2022-10-18T01:23:44.986Z,41.03
2022-10-18T01:24:15.008Z,40.99
2022-10-18T01:24:45.045Z,41.00
2022-10-18T01:25:15.069Z,41.03
2022-10-18T01:25:45.091Z,41.01
2022-10-18T01:26:15.138Z,40.98
2022-10-18T01:26:45.158Z,41.06
2022-10-18T01:27:15.189Z,40.98
2022-10-18T01:27:45.211Z,41.10
2022-10-18T01:28:15.234Z,41.06
2022-10-18T01:28:45.325Z,41.03
2022-10-18T01:29:15.338Z,41.09
2022-10-18T01:29:45.365Z,41.01
2022-10-18T01:30:15.391Z,41.04
2022-10-18T01:30:45.414Z,41.05
2022-10-18T01:31:15.457Z,41.05
2022-10-18T01:31:45.480Z,41.02
2022-10-18T01:32:15.506Z,41.04
2022-10-18T01:32:45.531Z,41.03
2022-10-18T01:33:15.559Z,40.99
2022-10-18T01:33:45.584Z,41.01
2022-10-18T01:34:15.669Z,41.04
2022-10-18T01:34:45.649Z,41.00
2022-10-18T01:35:15.672Z,41.03
2022-10-18T01:35:45.697Z,41.04
2022-10-18T01:36:15.725Z,40.95
2022-10-18T01:36:45.745Z,41.03
2022-10-18T01:37:15.777Z,41.04
2022-10-18T01:37:45.805Z,41.00
2022-10-18T01:38:15.832Z,41.03
2022-10-18T01:38:45.854Z,41.03
2022-10-18T01:39:15.889Z,41.02
2022-10-18T01:39:45.916Z,40.99
2022-10-18T01:40:15.942Z,41.01
2022-10-18T01:40:45.971Z,41.08
2022-10-18T01:41:16.166Z,41.08
2022-10-18T01:41:46.068Z,41.10
2022-10-18T01:42:16.102Z,41.04
2022-10-18T01:42:46.124Z,41.12
2022-10-18T01:43:16.152Z,41.16
2022-10-18T01:43:46.173Z,41.14
2022-10-18T01:44:16.208Z,41.10
2022-10-18T01:44:46.242Z,41.13
2022-10-18T01:45:16.270Z,41.07
2022-10-18T01:45:46.296Z,41.11
2022-10-18T01:46:16.322Z,41.15
2022-10-18T01:46:46.321Z,41.08
2022-10-18T01:47:16.439Z,41.08
2022-10-18T01:47:46.549Z,41.10
2022-10-18T01:48:16.660Z,41.11
2022-10-18T01:48:46.768Z,41.13
2022-10-18T01:49:16.927Z,41.13
2022-10-18T01:49:46.944Z,41.13
2022-10-18T01:50:17.033Z,41.18
2022-10-18T01:50:47.148Z,41.10
2022-10-18T01:51:17.264Z,41.13
2022-10-18T01:51:47.369Z,41.13
2022-10-18T01:52:17.486Z,41.13
2022-10-18T01:52:47.600Z,41.09
2022-10-18T01:53:17.719Z,41.10
2022-10-18T01:53:47.831Z,41.01
2022-10-18T01:54:17.945Z,41.10
2022-10-18T01:54:48.054Z,41.09
2022-10-18T01:55:18.115Z,41.09
2022-10-18T01:55:48.222Z,41.04
2022-10-18T01:56:18.260Z,41.14
2022-10-18T01:56:48.270Z,41.08
2022-10-18T01:57:18.293Z,41.09
2022-10-18T01:57:48.318Z,41.05
2022-10-18T01:58:18.345Z,41.03
2022-10-18T01:58:48.375Z,41.07
2022-10-18T01:59:18.399Z,41.06
2022-10-18T01:59:48.427Z,41.03
2022-10-18T02:00:18.458Z,41.12
2022-10-18T02:00:48.483Z,41.10
2022-10-18T02:01:18.515Z,41.00
2022-10-18T02:01:48.537Z,41.05
2022-10-18T02:02:18.565Z,41.04
2022-10-18T02:02:48.592Z,41.04
2022-10-18T02:03:18.624Z,41.07
2022-10-18T02:03:48.650Z,41.04
2022-10-18T02:04:18.674Z,41.05
2022-10-18T02:04:48.700Z,41.06
2022-10-18T02:05:18.746Z,41.08
2022-10-18T02:05:48.747Z,41.14
2022-10-18T02:06:18.774Z,41.07
2022-10-18T02:06:48.801Z,41.07
2022-10-18T02:07:18.831Z,41.08
2022-10-18T02:07:55.351Z,41.10
2022-10-18T02:08:23.145Z,41.06
2022-10-18T02:08:48.941Z,41.11
2022-10-18T02:09:18.965Z,41.07
2022-10-18T02:09:48.990Z,41.03
2022-10-18T02:10:19.020Z,41.11
2022-10-18T02:10:49.048Z,41.03
2022-10-18T02:11:19.094Z,41.10
2022-10-18T02:11:49.124Z,41.07
2022-10-18T02:12:19.161Z,41.03
2022-10-18T02:12:49.178Z,41.06
2022-10-18T02:13:19.209Z,41.00
2022-10-18T02:13:49.232Z,41.08
2022-10-18T02:14:19.257Z,41.03
2022-10-18T02:14:49.282Z,40.99
2022-10-18T02:15:19.307Z,41.00
2022-10-18T02:15:49.340Z,40.98
2022-10-18T02:16:19.368Z,40.95
2022-10-18T02:16:49.393Z,40.95
2022-10-18T02:17:19.417Z,40.95
2022-10-18T02:17:49.448Z,40.96
2022-10-18T02:18:19.475Z,40.97
2022-10-18T02:18:49.498Z,40.98
2022-10-18T02:19:19.578Z,40.95
2022-10-18T02:19:49.585Z,41.01
2022-10-18T02:20:19.617Z,41.01
2022-10-18T02:20:49.668Z,40.98
2022-10-18T02:21:19.678Z,41.01
2022-10-18T02:21:49.708Z,41.02
2022-10-18T02:22:19.730Z,41.04
2022-10-18T02:22:49.758Z,41.04
2022-10-18T02:23:19.778Z,41.01
2022-10-18T02:23:49.805Z,41.04
2022-10-18T02:24:19.829Z,41.05
2022-10-18T02:24:49.861Z,40.98
2022-10-18T02:25:19.883Z,41.04
2022-10-18T02:25:49.905Z,40.98
2022-10-18T02:26:19.944Z,40.99
2022-10-18T02:26:49.972Z,41.00
2022-10-18T02:27:19.998Z,40.95
2022-10-18T02:27:50.028Z,40.99
2022-10-18T02:28:20.149Z,40.99
2022-10-18T02:28:50.056Z,41.05
2022-10-18T02:29:20.081Z,40.99
2022-10-18T02:29:50.111Z,40.95
2022-10-18T02:30:20.138Z,40.92
2022-10-18T02:30:50.159Z,40.95
2022-10-18T02:31:20.193Z,40.96
2022-10-18T02:31:50.213Z,40.92
2022-10-18T02:32:20.246Z,40.95
2022-10-18T02:32:50.275Z,40.97
2022-10-18T02:33:20.293Z,40.95
2022-10-18T02:33:50.326Z,41.04
2022-10-18T02:34:20.346Z,41.00
2022-10-18T02:34:50.374Z,41.01
2022-10-18T02:35:20.400Z,40.98
2022-10-18T02:35:50.424Z,41.00
2022-10-18T02:36:20.475Z,41.04
2022-10-18T02:36:50.489Z,40.98
2022-10-18T02:37:20.564Z,41.04
2022-10-18T02:37:50.571Z,40.98
2022-10-18T02:38:20.597Z,40.99
2022-10-18T02:38:50.620Z,40.99
2022-10-18T02:39:20.643Z,40.93
2022-10-18T02:39:50.670Z,41.01
2022-10-18T02:40:20.696Z,40.96
2022-10-18T02:40:50.723Z,40.96
2022-10-18T02:41:20.761Z,40.95
2022-10-18T02:41:50.784Z,40.93
2022-10-18T02:42:20.810Z,40.98
2022-10-18T02:42:50.834Z,40.98
2022-10-18T02:43:20.861Z,40.95
2022-10-18T02:43:50.884Z,40.96
2022-10-18T02:44:20.917Z,40.99
2022-10-18T02:44:50.962Z,40.96
2022-10-18T02:45:20.978Z,41.00
2022-10-18T02:45:51.006Z,41.00
2022-10-18T02:46:21.107Z,40.98
2022-10-18T02:46:51.122Z,40.92
2022-10-18T02:47:21.236Z,40.91
2022-10-18T02:47:51.345Z,40.95
2022-10-18T02:48:21.458Z,40.95
2022-10-18T02:48:51.574Z,40.89
2022-10-18T02:49:21.684Z,40.88
2022-10-18T02:49:51.802Z,40.96
2022-10-18T02:50:21.910Z,40.95
2022-10-18T02:50:52.028Z,40.95
2022-10-18T02:51:22.171Z,40.92
2022-10-18T02:51:52.181Z,40.92
2022-10-18T02:52:22.273Z,40.98
2022-10-18T02:52:52.381Z,40.98
2022-10-18T02:53:22.497Z,41.01
2022-10-18T02:53:52.611Z,40.92
2022-10-18T02:54:22.720Z,40.98
2022-10-18T02:54:52.838Z,40.95
2022-10-18T02:55:23.019Z,40.93
2022-10-18T02:55:52.999Z,40.93
2022-10-18T02:56:23.127Z,40.96
2022-10-18T02:56:53.147Z,40.99
2022-10-18T02:57:23.173Z,40.90
2022-10-18T02:57:53.200Z,40.93
2022-10-18T02:58:23.226Z,40.95
2022-10-18T02:58:53.254Z,40.98
2022-10-18T02:59:23.278Z,40.95
2022-10-18T02:59:53.299Z,40.98
2022-10-18T03:00:23.320Z,41.04
2022-10-18T03:00:53.350Z,40.96
2022-10-18T03:01:23.446Z,40.92
2022-10-18T03:01:53.544Z,40.92
2022-10-18T03:02:23.449Z,40.98
2022-10-18T03:02:53.470Z,40.95
2022-10-18T03:03:23.494Z,40.99
2022-10-18T03:03:53.518Z,40.95
2022-10-18T03:04:23.573Z,40.95
2022-10-18T03:04:53.580Z,41.00
2022-10-18T03:05:23.604Z,40.96
2022-10-18T03:05:53.634Z,40.95
2022-10-18T03:06:23.769Z,40.92
2022-10-18T03:06:53.669Z,41.00
2022-10-18T03:07:23.717Z,40.96
2022-10-18T03:07:53.722Z,40.92
2022-10-18T03:08:23.743Z,40.93
2022-10-18T03:08:53.772Z,40.98
2022-10-18T03:09:23.795Z,40.96
2022-10-18T03:09:53.818Z,40.92
2022-10-18T03:10:23.844Z,40.98
2022-10-18T03:10:53.874Z,40.95
2022-10-18T03:11:23.911Z,40.89
2022-10-18T03:11:53.939Z,40.96
2022-10-18T03:12:23.959Z,40.99
2022-10-18T03:12:53.986Z,40.97
2022-10-18T03:13:24.052Z,40.98
2022-10-18T03:13:54.063Z,40.93
2022-10-18T03:14:24.084Z,40.99
2022-10-18T03:14:54.109Z,40.98
2022-10-18T03:15:24.138Z,40.96
2022-10-18T03:15:54.163Z,40.95
2022-10-18T03:16:24.209Z,40.90
2022-10-18T03:16:54.238Z,40.92
2022-10-18T03:17:24.258Z,40.99
2022-10-18T03:17:54.290Z,40.98
2022-10-18T03:18:24.312Z,40.93
2022-10-18T03:18:54.341Z,40.96
2022-10-18T03:19:24.367Z,40.93
2022-10-18T03:19:54.388Z,40.95
2022-10-18T03:20:24.414Z,40.91
2022-10-18T03:20:54.438Z,40.93
2022-10-18T03:21:24.469Z,40.95
2022-10-18T03:21:54.495Z,40.92
2022-10-18T03:22:24.568Z,40.92
2022-10-18T03:22:54.600Z,40.89
2022-10-18T03:23:24.599Z,40.96
2022-10-18T03:23:54.623Z,40.98
2022-10-18T03:24:24.648Z,40.90
2022-10-18T03:24:54.681Z,40.93
2022-10-18T03:25:24.704Z,40.90
2022-10-18T03:25:54.729Z,40.89
2022-10-18T03:26:24.766Z,40.96
2022-10-18T03:26:54.789Z,40.93
2022-10-18T03:27:24.814Z,40.89
2022-10-18T03:27:54.844Z,40.93
2022-10-18T03:28:24.924Z,40.95
2022-10-18T03:28:55.132Z,40.90
2022-10-18T03:29:25.065Z,40.95
2022-10-18T03:29:55.097Z,40.93
2022-10-18T03:30:25.123Z,40.90
2022-10-18T03:30:55.153Z,40.95
2022-10-18T03:31:25.345Z,40.93
2022-10-18T03:31:55.226Z,40.93
2022-10-18T03:32:25.248Z,40.90
2022-10-18T03:32:55.271Z,40.95
2022-10-18T03:33:25.295Z,40.98
2022-10-18T03:33:55.326Z,40.95
2022-10-18T03:34:25.354Z,40.99
2022-10-18T03:34:55.376Z,40.96
2022-10-18T03:35:25.398Z,40.95
2022-10-18T03:35:55.422Z,40.95
2022-10-18T03:36:25.468Z,40.93
2022-10-18T03:36:55.489Z,40.96
2022-10-18T03:37:25.519Z,41.02
2022-10-18T03:37:55.561Z,40.90
2022-10-18T03:38:25.611Z,40.92
2022-10-18T03:38:55.613Z,40.93
2022-10-18T03:39:25.636Z,40.98
2022-10-18T03:39:55.668Z,40.99
2022-10-18T03:40:25.745Z,40.92
2022-10-18T03:40:55.765Z,40.95
2022-10-18T03:41:25.807Z,40.90
2022-10-18T03:41:55.836Z,40.93
2022-10-18T03:42:25.863Z,40.96
2022-10-18T03:42:55.890Z,40.93
2022-10-18T03:43:25.919Z,40.97
2022-10-18T03:43:55.940Z,40.98
2022-10-18T03:44:25.969Z,40.96
2022-10-18T03:44:55.998Z,40.95
2022-10-18T03:45:28.960Z,40.98
2022-10-18T03:45:56.062Z,40.90
2022-10-18T03:46:26.087Z,40.93
2022-10-18T03:46:56.203Z,40.92
2022-10-18T03:47:26.315Z,40.96
2022-10-18T03:47:56.429Z,40.96
2022-10-18T03:48:26.550Z,40.92
2022-10-18T03:48:56.658Z,40.89
2022-10-18T03:49:26.797Z,40.93
2022-10-18T03:49:57.330Z,40.93
2022-10-18T03:50:26.868Z,40.93
2022-10-18T03:50:56.985Z,40.95
2022-10-18T03:51:27.106Z,40.92
2022-10-18T03:51:57.101Z,41.20
2022-10-18T03:52:27.212Z,41.20
2022-10-18T03:52:57.323Z,41.15
2022-10-18T03:53:27.471Z,41.07
2022-10-18T03:53:57.552Z,41.10
2022-10-18T03:54:27.666Z,41.09
2022-10-18T03:54:57.785Z,41.11
2022-10-18T03:55:27.893Z,41.09
2022-10-18T03:55:58.011Z,41.10
2022-10-18T03:56:28.127Z,41.06
2022-10-18T03:56:58.151Z,41.06
2022-10-18T03:57:28.174Z,41.12
2022-10-18T03:57:58.203Z,41.06
2022-10-18T03:58:28.316Z,41.06
2022-10-18T03:58:58.341Z,41.09
2022-10-18T03:59:28.364Z,41.11
2022-10-18T03:59:58.390Z,41.09
2022-10-18T04:00:28.412Z,41.06
2022-10-18T04:00:58.448Z,41.11
2022-10-18T04:01:28.517Z,41.15
2022-10-18T04:01:58.585Z,41.12
2022-10-18T04:02:28.734Z,41.23
2022-10-18T04:02:58.602Z,41.35
2022-10-18T04:03:28.631Z,41.30
2022-10-18T04:03:58.656Z,41.32
2022-10-18T04:04:28.682Z,41.44
2022-10-18T04:04:58.718Z,41.35
2022-10-18T04:05:28.733Z,41.35
2022-10-18T04:05:58.762Z,41.35
2022-10-18T04:06:28.806Z,41.57
2022-10-18T04:06:58.832Z,41.49
2022-10-18T04:07:28.919Z,41.49
2022-10-18T04:07:58.921Z,41.44
2022-10-18T04:08:28.948Z,41.41
2022-10-18T04:08:58.993Z,41.44
2022-10-18T04:09:28.993Z,41.47
2022-10-18T04:09:59.019Z,41.64
2022-10-18T04:10:29.042Z,41.61
2022-10-18T04:10:59.072Z,41.67
2022-10-18T04:11:29.110Z,41.57
2022-10-18T04:11:59.146Z,41.70
2022-10-18T04:12:29.495Z,41.57
2022-10-18T04:12:59.227Z,41.58
2022-10-18T04:13:29.251Z,41.58
2022-10-18T04:13:59.276Z,41.64
2022-10-18T04:14:29.303Z,41.55
2022-10-18T04:14:59.323Z,41.51
2022-10-18T04:15:29.351Z,41.49
2022-10-18T04:15:59.382Z,41.55
2022-10-18T04:16:29.445Z,41.42
2022-10-18T04:16:59.465Z,41.42
2022-10-18T04:17:29.644Z,41.43
2022-10-18T04:17:59.580Z,41.47
2022-10-18T04:18:29.604Z,41.45
2022-10-18T04:18:59.633Z,41.40
2022-10-18T04:19:29.666Z,41.42
2022-10-18T04:19:59.689Z,41.42
2022-10-18T04:20:29.718Z,41.36
2022-10-18T04:20:59.744Z,41.39
2022-10-18T04:21:29.794Z,41.35
2022-10-18T04:21:59.820Z,41.35
2022-10-18T04:22:29.845Z,41.32
2022-10-18T04:22:59.873Z,41.37
2022-10-18T04:23:31.835Z,41.34
2022-10-18T04:23:59.940Z,41.55
2022-10-18T04:24:29.994Z,41.55
2022-10-18T04:24:59.993Z,41.56
2022-10-18T04:25:30.091Z,41.49
2022-10-18T04:26:00.151Z,41.50
2022-10-18T04:26:30.156Z,41.71
2022-10-18T04:27:00.174Z,41.70
2022-10-18T04:27:30.470Z,41.75
2022-10-18T04:28:00.228Z,41.75
2022-10-18T04:28:30.291Z,41.69
2022-10-18T04:29:00.431Z,41.78
2022-10-18T04:29:30.369Z,41.81
2022-10-18T04:30:00.393Z,41.81
2022-10-18T04:30:30.417Z,42.19
2022-10-18T04:31:00.439Z,42.32
2022-10-18T04:31:30.489Z,42.38
2022-10-18T04:32:00.513Z,42.26
2022-10-18T04:32:30.540Z,42.14
2022-10-18T04:33:00.572Z,42.07
2022-10-18T04:33:30.593Z,42.06
2022-10-18T04:34:00.617Z,42.10
2022-10-18T04:34:30.700Z,41.89
2022-10-18T04:35:00.742Z,41.76
2022-10-18T04:35:30.829Z,41.90
2022-10-18T04:36:00.879Z,41.92
2022-10-18T04:36:30.934Z,41.87
2022-10-18T04:37:00.952Z,41.90
2022-10-18T04:37:31.373Z,41.95
2022-10-18T04:38:01.058Z,41.92
2022-10-18T04:38:31.086Z,41.92
2022-10-18T04:39:01.112Z,42.03
2022-10-18T04:39:31.133Z,42.01
2022-10-18T04:40:01.181Z,42.06
2022-10-18T04:40:31.182Z,42.03
2022-10-18T04:41:01.206Z,42.17
2022-10-18T04:41:31.259Z,42.04
2022-10-18T04:42:01.289Z,41.99
2022-10-18T04:42:31.314Z,41.76
2022-10-18T04:43:01.348Z,41.99
2022-10-18T04:43:31.373Z,42.08
2022-10-18T04:44:01.404Z,42.09
2022-10-18T04:44:31.429Z,42.10
2022-10-18T04:45:01.466Z,42.11
2022-10-18T04:45:31.493Z,42.07
2022-10-18T04:46:01.521Z,41.98
2022-10-18T04:46:31.562Z,41.91
2022-10-18T04:47:40.500Z,41.71
2022-10-18T04:48:10.578Z,41.80
2022-10-18T04:48:40.653Z,41.91
2022-10-18T04:49:10.728Z,41.89
2022-10-18T04:49:40.797Z,41.92
2022-10-18T04:50:10.878Z,41.93
2022-10-18T04:50:40.955Z,41.91
2022-10-18T04:51:11.026Z,41.85
2022-10-18T04:51:41.116Z,41.84
2022-10-18T04:52:11.203Z,41.85
2022-10-18T04:52:41.321Z,41.82
2022-10-18T04:53:11.377Z,41.88
2022-10-18T04:53:41.452Z,41.76
2022-10-18T04:54:11.524Z,41.82
2022-10-18T04:54:41.597Z,41.72
2022-10-18T04:55:11.698Z,41.72
2022-10-18T04:55:41.766Z,41.71
2022-10-18T04:56:11.827Z,41.59
2022-10-18T04:56:41.950Z,41.65
2022-10-18T04:57:12.015Z,41.56
2022-10-18T04:57:42.125Z,41.64
2022-10-18T04:58:12.239Z,41.59
2022-10-18T04:58:42.354Z,41.59
2022-10-18T04:59:12.471Z,41.57
2022-10-18T04:59:42.586Z,41.55
2022-10-18T05:00:12.697Z,41.54
2022-10-18T05:00:42.815Z,41.55
2022-10-18T05:01:12.863Z,41.56
2022-10-18T05:01:43.023Z,41.53
2022-10-18T05:02:12.911Z,41.48
2022-10-18T05:02:43.025Z,41.54
2022-10-18T05:03:13.178Z,41.56
2022-10-18T05:03:43.162Z,41.49
2022-10-18T05:04:13.268Z,41.49
2022-10-18T05:04:43.383Z,41.46
2022-10-18T05:05:14.311Z,41.55
2022-10-18T05:06:00.915Z,41.44
2022-10-18T05:06:13.582Z,41.47
2022-10-18T05:06:43.732Z,41.43
2022-10-18T05:07:13.718Z,41.41
2022-10-18T05:07:43.833Z,41.43
2022-10-18T05:08:13.945Z,41.41
2022-10-18T05:08:44.060Z,41.41
2022-10-18T05:09:14.177Z,41.44
2022-10-18T05:09:44.296Z,41.38
2022-10-18T05:10:14.317Z,41.41
2022-10-18T05:10:44.411Z,41.38
2022-10-18T05:11:14.522Z,41.41
2022-10-18T05:11:44.643Z,41.34
2022-10-18T05:12:14.629Z,41.31
2022-10-18T05:12:44.747Z,41.43
2022-10-18T05:13:14.854Z,41.37
2022-10-18T05:13:47.220Z,41.36
2022-10-18T05:14:14.990Z,41.34
2022-10-18T05:14:45.107Z,41.39
2022-10-18T05:15:15.225Z,41.37
2022-10-18T05:15:45.333Z,41.36
2022-10-18T05:16:15.325Z,41.35
2022-10-18T05:16:45.570Z,41.35
2022-10-18T05:17:15.559Z,41.31
2022-10-18T05:17:45.671Z,41.29
2022-10-18T05:18:15.793Z,41.31
2022-10-18T05:18:45.790Z,41.36
2022-10-18T05:19:15.894Z,41.44
2022-10-18T05:19:46.005Z,41.44
2022-10-18T05:20:16.122Z,41.65
2022-10-18T05:20:46.235Z,41.83
2022-10-18T05:21:16.346Z,41.74
2022-10-18T05:21:46.470Z,41.62
2022-10-18T05:22:16.575Z,41.72
2022-10-18T05:22:46.692Z,41.76
2022-10-18T05:23:16.806Z,41.83
2022-10-18T05:23:46.922Z,41.85
2022-10-18T05:24:17.035Z,41.82
2022-10-18T05:24:47.147Z,41.73
2022-10-18T05:25:17.166Z,41.68
2022-10-18T05:25:47.255Z,41.86
2022-10-18T05:26:17.369Z,41.73
2022-10-18T05:26:47.494Z,41.77
2022-10-18T05:27:17.478Z,41.68
2022-10-18T05:27:47.601Z,41.73
2022-10-18T05:28:45.510Z,41.76
2022-10-18T05:28:47.678Z,41.82
2022-10-18T05:29:17.811Z,41.73
2022-10-18T05:29:47.720Z,41.72
2022-10-18T05:30:17.736Z,41.75
2022-10-18T05:30:47.862Z,41.68
2022-10-18T05:31:17.965Z,41.76
2022-10-18T05:31:48.082Z,41.68
2022-10-18T05:32:18.194Z,41.66
2022-10-18T05:32:48.303Z,41.65
2022-10-18T05:33:18.418Z,41.63
2022-10-18T05:33:48.554Z,41.61
2022-10-18T05:34:18.659Z,41.61
2022-10-18T05:34:48.648Z,41.60
2022-10-18T05:35:18.754Z,41.47
2022-10-18T05:35:48.871Z,41.56
2022-10-18T05:36:18.989Z,41.52
2022-10-18T05:36:48.976Z,41.49
2022-10-18T05:37:19.097Z,41.52
2022-10-18T05:37:49.202Z,41.47
2022-10-18T05:38:19.196Z,41.49
2022-10-18T05:38:49.315Z,41.48
2022-10-18T05:39:19.421Z,41.48
2022-10-18T05:39:49.535Z,41.49
2022-10-18T05:40:19.668Z,41.27
2022-10-18T05:40:49.763Z,41.42
2022-10-18T05:41:19.756Z,41.39
2022-10-18T05:41:49.868Z,41.37
2022-10-18T05:42:19.985Z,41.33
2022-10-18T05:42:50.090Z,41.32
2022-10-18T05:43:20.200Z,41.44
2022-10-18T05:43:50.318Z,41.48
2022-10-18T05:44:20.436Z,41.42
2022-10-18T05:44:50.426Z,41.44
2022-10-18T05:45:20.538Z,41.41
2022-10-18T05:45:50.651Z,41.37
2022-10-18T05:46:20.767Z,41.37
2022-10-18T05:46:50.875Z,41.34
2022-10-18T05:47:20.986Z,41.34
2022-10-18T05:47:51.054Z,41.38
2022-10-18T05:48:21.124Z,41.34
2022-10-18T05:48:51.204Z,41.31
2022-10-18T05:49:21.279Z,41.30
2022-10-18T05:49:51.354Z,41.20
2022-10-18T05:50:21.427Z,41.23
2022-10-18T05:50:51.510Z,41.20
2022-10-18T05:51:21.587Z,41.16
2022-10-18T05:51:51.663Z,41.17
2022-10-18T05:52:21.736Z,41.15
2022-10-18T05:52:51.812Z,41.16
2022-10-18T05:53:36.259Z,41.11
2022-10-18T05:53:51.990Z,41.07
2022-10-18T05:54:22.093Z,41.05
2022-10-18T05:54:52.066Z,40.99
2022-10-18T05:55:22.139Z,41.00
2022-10-18T05:55:52.286Z,40.99
2022-10-18T05:56:22.320Z,41.01
2022-10-18T05:56:52.401Z,40.96
2022-10-18T05:57:22.519Z,40.94
2022-10-18T05:57:52.503Z,40.91
2022-10-18T05:58:22.620Z,40.91
2022-10-18T05:58:52.731Z,40.88
2022-10-18T05:59:22.740Z,40.88
2022-10-18T05:59:52.878Z,40.91
2022-10-18T06:00:22.893Z,40.81
2022-10-18T06:00:53.006Z,40.77
2022-10-18T06:01:23.152Z,40.80
2022-10-18T06:01:53.174Z,40.74
2022-10-18T06:02:23.346Z,40.72
2022-10-18T06:02:55.250Z,40.71
2022-10-18T06:03:23.418Z,40.76
2022-10-18T06:03:53.561Z,40.67
2022-10-18T06:04:23.551Z,40.67
2022-10-18T06:04:53.682Z,40.69
2022-10-18T06:05:23.682Z,40.62
2022-10-18T06:05:53.806Z,40.63
2022-10-18T06:06:23.806Z,40.73
2022-10-18T06:06:53.936Z,40.64
2022-10-18T06:07:23.936Z,40.65
2022-10-18T06:07:54.050Z,40.62
2022-10-18T06:08:24.048Z,40.60
2022-10-18T06:08:54.159Z,40.60
2022-10-18T06:09:24.273Z,40.54
2022-10-18T06:09:54.385Z,40.56
2022-10-18T06:10:24.499Z,40.55
2022-10-18T06:10:54.500Z,40.55
2022-10-18T06:11:24.642Z,40.59
2022-10-18T06:11:54.620Z,40.56
2022-10-18T06:12:24.626Z,40.54
2022-10-18T06:12:54.735Z,40.53
2022-10-18T06:13:24.845Z,40.55
2022-10-18T06:13:54.957Z,40.53
2022-10-18T06:14:25.064Z,40.50
2022-10-18T06:14:55.067Z,40.54
2022-10-18T06:15:25.176Z,40.53
2022-10-18T06:15:55.328Z,40.57
2022-10-18T06:16:29.802Z,40.55
2022-10-18T06:16:55.358Z,40.55
2022-10-18T06:17:26.798Z,40.57
2022-10-18T06:17:55.494Z,40.54
2022-10-18T06:18:25.618Z,40.57
2022-10-18T06:18:55.721Z,40.55
2022-10-18T06:19:25.838Z,40.55
2022-10-18T06:19:55.952Z,40.55
2022-10-18T06:20:26.120Z,40.54
2022-10-18T06:20:56.114Z,40.55
2022-10-18T06:21:26.226Z,40.56
2022-10-18T06:21:56.339Z,40.56
2022-10-18T06:22:26.453Z,40.59
2022-10-18T06:22:56.583Z,40.59
2022-10-18T06:23:26.584Z,40.61
2022-10-18T06:23:56.708Z,40.61
2022-10-18T06:24:26.811Z,40.55
2022-10-18T06:24:57.374Z,40.62
2022-10-18T06:25:26.933Z,40.60
2022-10-18T06:25:56.951Z,40.65
2022-10-18T06:26:27.088Z,40.66
2022-10-18T06:26:57.227Z,40.65
2022-10-18T06:27:27.200Z,40.63